Time;durP1;ratioP1;P1;durP2;ratioP2;P2;SDS_P1;SDS_P2;PMS_P1;PMS_P2;Temp;Humidity;BMP_temperature;BMP_pressure;BME280_temperature;BME280_humidity;BME280_pressure;Samples;Min_cycle;Max_cycle;Signal;HPM_P1;HPM_P2
2021/01/21 00:00:56;;;;;;;12.57;1.93;;;3.60;99.90;;;4.28;100.00;96301.63;4999792;28;20463;-76
2021/01/21 00:03:23;;;;;;;1.57;1.47;;;3.70;99.90;;;4.32;100.00;96289.91;5011070;28;20466;-77
2021/01/21 00:05:51;;;;;;;2.17;1.40;;;3.70;99.90;;;4.34;100.00;96284.56;4998747;28;20475;-77
2021/01/21 00:08:18;;;;;;;2.63;1.60;;;3.70;99.90;;;4.36;100.00;96283.38;4999605;28;21342;-77
2021/01/21 00:10:47;;;;;;;4.20;1.50;;;3.70;99.90;;;4.42;100.00;96282.59;5001590;28;20468;-77
2021/01/21 00:13:14;;;;;;;7.70;2.03;;;3.80;99.90;;;4.46;100.00;96272.66;5000277;28;21030;-77
2021/01/21 00:15:42;;;;;;;4.30;1.60;;;3.90;99.90;;;4.43;100.00;96267.88;4999215;28;20470;-77
2021/01/21 00:18:09;;;;;;;2.73;1.50;;;3.90;99.90;;;4.46;100.00;96262.31;5001851;28;20509;-77
2021/01/21 00:20:37;;;;;;;2.43;1.57;;;3.90;99.90;;;4.50;100.00;96264.34;5001245;28;20471;-77
2021/01/21 00:23:04;;;;;;;3.53;1.13;;;4.00;99.90;;;4.57;100.00;96264.38;5000343;28;20471;-77
2021/01/21 00:25:32;;;;;;;2.57;1.93;;;4.10;99.90;;;4.64;100.00;96256.63;4999200;28;20467;-77
2021/01/21 00:28:01;;;;;;;2.63;1.20;;;4.20;99.90;;;4.76;100.00;96260.22;5002918;28;20455;-79
2021/01/21 00:30:28;;;;;;;2.57;1.00;;;4.30;99.90;;;4.96;100.00;96248.94;4999963;28;20503;-77
2021/01/21 00:32:56;;;;;;;1.63;0.93;;;4.60;99.90;;;5.33;100.00;96244.22;5001223;28;20462;-77
2021/01/21 00:35:24;;;;;;;6.23;1.33;;;5.00;99.90;;;5.47;100.00;96253.59;4999854;28;20471;-77
2021/01/21 00:37:51;;;;;;;3.07;1.30;;;5.10;99.90;;;5.57;100.00;96241.81;4998964;28;20466;-77
2021/01/21 00:40:19;;;;;;;1.70;1.07;;;5.20;99.90;;;5.74;100.00;96236.22;5001606;28;20466;-77
2021/01/21 00:42:46;;;;;;;3.90;1.40;;;5.40;99.90;;;5.80;100.00;96230.22;4999298;28;20550;-77
2021/01/21 00:45:15;;;;;;;2.03;1.33;;;5.40;99.90;;;5.93;100.00;96220.66;5000348;28;20867;-77
2021/01/21 00:47:42;;;;;;;6.33;1.50;;;5.60;99.90;;;6.04;100.00;96225.22;5001739;28;20451;-77
2021/01/21 00:50:11;;;;;;;1.70;1.03;;;5.70;99.90;;;6.22;100.00;96224.56;4999541;28;21066;-77
2021/01/21 00:52:39;;;;;;;2.80;1.50;;;5.90;99.90;;;6.31;100.00;96218.16;5001536;28;20468;-77
2021/01/21 00:55:08;;;;;;;3.47;1.30;;;6.00;99.90;;;6.46;100.00;96217.88;4998643;28;20490;-76
2021/01/21 00:57:35;;;;;;;1.83;1.00;;;6.20;99.90;;;6.58;100.00;96204.06;5001814;28;20462;-77
2021/01/21 01:00:09;;;;;;;5.00;1.43;;;6.30;99.90;;;6.64;100.00;96204.22;4996078;28;20459;-77
2021/01/21 01:02:38;;;;;;;2.30;1.30;;;6.30;99.90;;;6.68;100.00;96208.00;4999339;28;20479;-77
2021/01/21 01:05:08;;;;;;;1.40;1.10;;;6.30;99.90;;;6.79;100.00;96202.16;4998578;28;20474;-77
2021/01/21 01:07:35;;;;;;;2.97;1.17;;;6.50;99.90;;;6.88;100.00;96201.69;5001050;28;20967;-77
2021/01/21 01:10:04;;;;;;;3.23;1.20;;;6.60;99.90;;;6.90;100.00;96201.50;4999995;28;21068;-77
2021/01/21 01:12:32;;;;;;;3.40;1.30;;;6.50;99.90;;;7.00;100.00;96207.81;5000122;28;20471;-77
2021/01/21 01:15:00;;;;;;;7.60;1.60;;;6.70;99.90;;;7.08;100.00;96194.56;5001544;28;20467;-77
2021/01/21 01:17:28;;;;;;;1.63;1.20;;;6.70;99.90;;;7.14;100.00;96189.53;5000642;28;20463;-77
2021/01/21 01:19:56;;;;;;;5.43;1.43;;;6.70;99.90;;;7.21;100.00;96174.69;4998415;28;20468;-77
2021/01/21 01:22:24;;;;;;;1.90;1.40;;;6.80;99.90;;;7.29;100.00;96170.00;4999881;28;20979;-77
2021/01/21 01:24:51;;;;;;;2.40;1.20;;;7.00;99.90;;;7.30;100.00;96171.59;4999147;28;20895;-77
2021/01/21 01:27:19;;;;;;;1.50;1.13;;;6.90;99.90;;;7.32;100.00;96161.81;5000068;28;20467;-77
2021/01/21 01:29:46;;;;;;;4.07;1.30;;;6.90;99.90;;;7.41;100.00;96157.91;5000625;28;20503;-77
2021/01/21 01:32:14;;;;;;;1.40;0.90;;;7.00;99.90;;;7.48;100.00;96137.84;5000057;28;20471;-77
2021/01/21 01:34:42;;;;;;;5.47;1.50;;;7.20;99.90;;;7.54;100.00;96150.00;4998855;28;20487;-77
2021/01/21 01:37:10;;;;;;;2.90;1.57;;;7.30;99.90;;;7.64;100.00;96148.69;4998322;28;20474;-77
2021/01/21 01:39:38;;;;;;;2.90;1.30;;;7.30;99.90;;;7.65;100.00;96137.28;5000166;28;20468;-77
2021/01/21 01:42:09;;;;;;;1.93;1.03;;;7.30;99.90;;;7.62;100.00;96148.94;4999297;28;20459;-77
2021/01/21 01:44:38;;;;;;;3.50;1.23;;;7.20;99.90;;;7.66;100.00;96149.28;5000267;28;20466;-77
2021/01/21 01:47:06;;;;;;;3.10;1.40;;;7.30;99.90;;;7.65;100.00;96132.09;4999888;28;20463;-77
2021/01/21 01:49:35;;;;;;;3.20;1.57;;;7.30;99.90;;;7.64;100.00;96126.09;4999051;28;20494;-77
2021/01/21 01:52:02;;;;;;;3.00;1.53;;;7.30;99.90;;;7.64;100.00;96120.88;4998115;28;20470;-77
2021/01/21 01:54:31;;;;;;;2.13;1.20;;;7.30;99.90;;;7.63;100.00;96123.72;5000341;28;20459;-77
2021/01/21 01:57:03;;;;;;;5.07;1.40;;;7.20;99.90;;;7.71;100.00;96113.00;4999131;28;20468;-77
2021/01/21 01:59:31;;;;;;;1.70;1.00;;;7.40;99.90;;;7.76;100.00;96113.97;4999083;28;20470;-77
2021/01/21 02:02:00;;;;;;;1.47;1.10;;;7.40;99.90;;;7.80;100.00;96111.72;4996614;28;20475;-77
2021/01/21 02:04:28;;;;;;;2.30;1.10;;;7.40;99.90;;;7.79;100.00;96112.72;4996974;28;20470;-77
2021/01/21 02:07:06;;;;;;;4.60;1.20;;;7.40;99.90;;;7.82;100.00;96101.88;4997839;28;20466;-78
2021/01/21 02:09:36;;;;;;;3.90;1.20;;;7.50;99.90;;;7.87;100.00;96087.22;5001107;28;20506;-76
2021/01/21 02:12:19;;;;;;;2.20;1.20;;;7.50;99.90;;;7.88;100.00;96088.78;4998967;28;20522;-77
2021/01/21 02:15:02;;;;;;;6.40;2.20;;;7.50;99.90;;;7.88;99.95;96096.59;5000229;28;20459;-77
2021/01/21 02:17:39;;;;;;;1.33;0.90;;;7.50;99.90;;;7.93;99.20;96093.34;4999615;28;20472;-77
2021/01/21 02:21:12;;;;;;;1.80;1.20;;;7.60;99.90;;;8.00;99.12;96094.06;4999377;28;20471;-77
2021/01/21 02:24:36;;;;;;;2.13;0.90;;;7.60;99.90;;;8.15;97.32;96086.69;5000280;28;20456;-77
2021/01/21 02:27:06;;;;;;;2.53;1.00;;;7.80;99.90;;;8.19;97.44;96087.81;4998738;28;20522;-77
2021/01/21 02:29:37;;;;;;;2.03;1.10;;;7.90;99.90;;;8.19;97.27;96087.03;4999434;28;20499;-77
2021/01/21 02:32:38;;;;;;;1.27;1.17;;;7.80;99.90;;;8.18;98.24;96085.44;5002252;28;20517;-77
2021/01/21 02:35:15;;;;;;;4.23;1.30;;;7.80;99.90;;;8.18;98.04;96067.22;5002518;28;20499;-77
2021/01/21 02:37:54;;;;;;;1.50;0.90;;;7.80;99.90;;;8.21;97.21;96062.38;5002744;28;20454;-77
2021/01/21 02:40:23;;;;;;;3.23;1.00;;;7.90;99.90;;;8.17;97.97;96074.22;5002951;28;20462;-77
2021/01/21 02:42:51;;;;;;;3.10;1.40;;;7.80;99.90;;;8.16;98.21;96072.63;4999589;28;20467;-77
2021/01/21 02:45:19;;;;;;;4.17;1.50;;;7.80;99.90;;;8.17;98.03;96076.84;5002914;28;20477;-77
2021/01/21 02:47:46;;;;;;;2.90;1.30;;;7.80;99.90;;;8.21;98.00;96064.97;5001289;28;20467;-77
2021/01/21 02:50:15;;;;;;;5.27;1.57;;;7.90;99.90;;;8.25;97.96;96075.72;5002826;28;20494;-77
2021/01/21 02:52:53;;;;;;;1.77;1.30;;;7.90;99.90;;;8.28;97.26;96073.50;5005031;28;20500;-77
2021/01/21 02:55:30;;;;;;;2.70;1.20;;;7.90;99.90;;;8.29;97.73;96062.09;5002731;28;20497;-77
2021/01/21 02:58:07;;;;;;;3.47;1.10;;;7.90;99.90;;;8.25;99.25;96076.53;5002698;28;20487;-77
2021/01/21 03:00:38;;;;;;;1.40;1.23;;;7.90;99.90;;;8.33;97.39;96071.03;5002246;28;20517;-77
2021/01/21 03:03:16;;;;;;;2.53;1.40;;;7.90;99.90;;;8.44;96.64;96065.06;5001897;28;20839;-77
2021/01/21 03:05:51;;;;;;;3.40;1.30;;;8.10;99.90;;;8.50;96.86;96069.38;5000766;28;20963;-77
2021/01/21 03:08:19;;;;;;;2.50;1.53;;;8.10;99.90;;;8.51;96.95;96063.16;5002492;28;20463;-77
2021/01/21 03:10:46;;;;;;;3.30;1.37;;;8.10;99.90;;;8.51;96.94;96070.97;5003417;28;20499;-77
2021/01/21 03:13:14;;;;;;;1.53;1.07;;;8.10;99.90;;;8.49;97.36;96065.22;5001690;28;20464;-77
2021/01/21 03:15:41;;;;;;;3.10;1.17;;;8.10;99.90;;;8.59;96.88;96068.06;5001787;28;20536;-77
2021/01/21 03:18:09;;;;;;;3.00;0.90;;;8.20;99.90;;;8.65;95.95;96068.16;5002683;28;20450;-76
2021/01/21 03:20:37;;;;;;;4.87;1.57;;;8.20;99.90;;;8.65;96.98;96071.56;5002861;28;20826;-77
2021/01/21 03:23:06;;;;;;;3.23;1.30;;;8.20;99.90;;;8.61;98.32;96062.59;5002449;28;20838;-77
2021/01/21 03:25:33;;;;;;;1.60;1.20;;;8.20;99.90;;;8.63;97.44;96067.59;5002514;28;20464;-77
2021/01/21 03:28:01;;;;;;;3.97;1.40;;;8.20;99.90;;;8.64;97.46;96074.41;5001021;28;20465;-77
2021/01/21 03:30:28;;;;;;;2.37;1.30;;;8.20;99.90;;;8.66;96.89;96073.16;5001827;28;20510;-77
2021/01/21 03:32:59;;;;;;;11.37;1.40;;;8.30;99.90;;;8.64;98.54;96084.84;5001121;28;20537;-77
2021/01/21 03:35:27;;;;;;;1.90;1.30;;;8.20;99.90;;;8.70;97.70;96068.31;5001241;28;20495;-77
2021/01/21 03:37:54;;;;;;;1.90;1.13;;;8.30;99.90;;;8.71;98.26;96062.09;5001886;28;20885;-77
2021/01/21 03:40:23;;;;;;;2.57;1.23;;;8.40;99.90;;;8.70;99.26;96070.91;5000427;28;20476;-77
2021/01/21 03:42:50;;;;;;;6.17;1.30;;;8.30;99.90;;;8.68;100.00;96060.69;5001810;28;20450;-77
2021/01/21 03:45:18;;;;;;;11.50;1.30;;;8.30;99.90;;;8.70;100.00;96044.84;5000440;28;20490;-77
2021/01/21 03:47:46;;;;;;;3.10;1.50;;;8.30;99.90;;;8.66;100.00;96057.53;5001649;28;20474;-77
2021/01/21 03:50:14;;;;;;;3.23;1.37;;;8.30;99.90;;;8.67;100.00;96047.91;4998617;28;20475;-77
2021/01/21 03:52:41;;;;;;;2.33;1.30;;;8.30;99.90;;;8.59;100.00;96052.44;5001709;28;20458;-77
2021/01/21 03:55:10;;;;;;;1.10;1.00;;;8.20;99.90;;;8.69;100.00;96051.88;5000564;28;21033;-77
2021/01/21 03:57:39;;;;;;;1.60;1.40;;;8.40;99.90;;;8.71;100.00;96046.47;5002905;28;20887;-77
2021/01/21 04:00:08;;;;;;;2.23;1.37;;;8.30;99.90;;;8.68;100.00;96042.47;4999929;28;20467;-77
2021/01/21 04:02:35;;;;;;;2.47;1.20;;;8.30;99.90;;;8.69;100.00;96051.88;5001135;28;20463;-78
2021/01/21 04:05:05;;;;;;;6.50;1.20;;;8.30;99.90;;;8.74;100.00;96046.00;5000682;28;21110;-77
2021/01/21 04:07:32;;;;;;;7.53;1.43;;;8.30;99.90;;;8.78;100.00;96049.75;4999746;28;20464;-77
2021/01/21 04:10:00;;;;;;;5.93;1.20;;;8.50;99.90;;;8.73;100.00;96057.44;5001161;28;20502;-77
2021/01/21 04:12:28;;;;;;;4.77;1.40;;;8.30;99.90;;;8.77;100.00;96053.38;4999725;28;21026;-77
2021/01/21 04:14:56;;;;;;;4.30;1.40;;;8.40;99.90;;;8.76;100.00;96068.19;5000613;28;20464;-77
2021/01/21 04:17:24;;;;;;;6.40;1.60;;;8.30;99.90;;;8.75;100.00;96058.78;5001140;28;20468;-77
2021/01/21 04:19:52;;;;;;;4.83;1.50;;;8.40;99.90;;;8.76;100.00;96052.56;5000526;28;20975;-77
2021/01/21 04:22:19;;;;;;;16.87;1.30;;;8.40;99.90;;;8.77;100.00;96048.94;5001760;28;20452;-77
2021/01/21 04:24:47;;;;;;;3.70;1.97;;;8.40;99.90;;;8.76;100.00;96049.97;5000079;28;20471;-77
2021/01/21 04:27:14;;;;;;;2.80;1.10;;;8.30;99.90;;;8.74;100.00;96043.41;4999316;28;20967;-78
2021/01/21 04:29:42;;;;;;;2.50;1.20;;;8.30;99.90;;;8.72;100.00;96050.63;4998887;28;20861;-77
2021/01/21 04:32:10;;;;;;;2.60;1.10;;;8.30;99.90;;;8.76;100.00;96054.38;5000025;28;20550;-77
2021/01/21 04:34:38;;;;;;;2.70;1.00;;;8.40;99.90;;;8.79;100.00;96046.09;5000161;28;20559;-78
2021/01/21 04:37:05;;;;;;;3.40;1.40;;;8.40;99.90;;;8.79;100.00;96048.72;4997851;28;20473;-77
2021/01/21 04:39:33;;;;;;;1.37;1.10;;;8.40;99.90;;;8.84;100.00;96051.44;4999697;28;20887;-77
2021/01/21 04:42:01;;;;;;;1.90;1.60;;;8.40;99.90;;;8.89;100.00;96046.34;4998947;28;20983;-77
2021/01/21 04:44:28;;;;;;;44.17;18.07;;;8.50;99.90;;;8.95;100.00;96048.88;4999372;28;20522;-76
2021/01/21 04:46:59;;;;;;;6.23;2.60;;;8.60;99.90;;;8.95;100.00;96032.44;4998697;28;20464;-77
2021/01/21 04:49:29;;;;;;;2.60;1.30;;;8.50;99.90;;;8.96;100.00;96047.81;5000259;28;20548;-78
2021/01/21 04:52:03;;;;;;;17.13;8.77;;;8.60;99.90;;;8.95;100.00;96037.63;4999338;28;20471;-75
2021/01/21 04:54:40;;;;;;;3.33;1.93;;;8.50;99.90;;;8.95;100.00;96045.47;4995984;28;20479;-77
2021/01/21 04:57:13;;;;;;;1.43;0.93;;;8.50;99.90;;;9.06;100.00;96045.44;5000146;28;20477;-78
2021/01/21 04:59:41;;;;;;;2.93;1.20;;;8.70;99.90;;;9.13;100.00;96034.13;5001806;28;20463;-79
2021/01/21 05:02:10;;;;;;;4.13;1.27;;;8.70;99.90;;;9.13;100.00;96021.09;5001835;28;20451;-78
2021/01/21 05:04:40;;;;;;;1.63;1.37;;;8.70;99.90;;;9.16;100.00;96025.84;5001998;28;20495;-78
2021/01/21 05:07:08;;;;;;;1.90;1.07;;;8.80;99.90;;;9.14;100.00;96017.44;5002179;28;20447;-78
2021/01/21 05:09:36;;;;;;;4.83;1.20;;;8.80;99.90;;;9.12;100.00;96028.13;5002375;28;20625;-77
2021/01/21 05:12:05;;;;;;;2.23;1.17;;;8.70;99.90;;;9.17;100.00;96023.00;4999125;28;20530;-78
2021/01/21 05:14:32;;;;;;;3.33;2.00;;;8.80;99.90;;;9.16;100.00;96025.84;5001090;28;20471;-76
2021/01/21 05:17:00;;;;;;;4.00;1.20;;;8.80;99.90;;;9.14;100.00;96023.47;5000576;28;20514;-78
2021/01/21 05:19:32;;;;;;;2.13;1.10;;;8.70;99.90;;;9.15;100.00;96019.03;5000570;28;20459;-77
2021/01/21 05:22:02;;;;;;;2.20;1.67;;;8.80;99.90;;;9.10;100.00;96025.72;4999731;28;20493;-76
2021/01/21 05:24:29;;;;;;;1.30;1.00;;;8.70;99.90;;;9.17;100.00;96017.00;4999892;28;20458;-78
2021/01/21 05:26:57;;;;;;;1.20;1.00;;;8.80;99.90;;;9.17;100.00;96035.25;5000529;28;20458;-78
2021/01/21 05:29:26;;;;;;;1.23;0.97;;;8.80;99.90;;;9.20;100.00;96025.16;4994547;28;20483;-78
2021/01/21 05:31:55;;;;;;;3.00;1.13;;;8.80;99.90;;;9.23;100.00;96022.09;5000758;28;20447;-78
2021/01/21 05:34:23;;;;;;;1.00;0.90;;;8.90;99.90;;;9.25;100.00;96030.47;4994589;28;20824;-79
2021/01/21 05:36:51;;;;;;;1.57;1.00;;;8.80;99.90;;;9.25;100.00;96025.28;5001251;28;20447;-78
2021/01/21 05:39:19;;;;;;;1.70;1.13;;;8.80;99.90;;;9.28;100.00;96030.03;4999960;28;20573;-77
2021/01/21 05:41:47;;;;;;;4.73;1.17;;;8.90;99.90;;;9.30;100.00;96027.97;5001468;28;20829;-78
2021/01/21 05:44:16;;;;;;;1.60;1.03;;;8.90;99.90;;;9.28;100.00;96027.41;4996701;28;20455;-78
2021/01/21 05:46:45;;;;;;;2.87;1.00;;;8.90;99.90;;;9.27;100.00;96018.00;5000873;28;20459;-77
2021/01/21 05:49:13;;;;;;;1.20;1.10;;;8.90;99.90;;;9.27;100.00;96025.81;4999936;28;20467;-78
2021/01/21 05:51:40;;;;;;;4.60;1.53;;;8.90;99.90;;;9.26;100.00;96036.50;5000602;28;20450;-78
2021/01/21 05:54:10;;;;;;;1.70;1.00;;;8.90;99.90;;;9.27;100.00;96028.44;4997828;28;20505;-78
2021/01/21 05:56:39;;;;;;;2.30;1.17;;;8.90;99.90;;;9.27;100.00;96023.22;5000332;28;21015;-78
2021/01/21 05:59:08;;;;;;;4.53;1.20;;;8.80;99.90;;;9.33;100.00;96011.88;4998154;28;20498;-78
2021/01/21 06:01:36;;;;;;;4.00;1.27;;;8.90;99.90;;;9.30;100.00;96014.94;4999915;28;20451;-78
2021/01/21 06:04:05;;;;;;;2.23;1.47;;;8.90;99.90;;;9.28;100.00;96017.00;4998993;28;20560;-78
2021/01/21 06:06:39;;;;;;;1.20;1.10;;;8.80;99.90;;;9.32;100.00;96022.53;5004833;28;20890;-78
2021/01/21 06:09:12;;;;;;;2.00;1.03;;;8.80;99.90;;;9.34;100.00;96021.28;5004871;28;20913;-77
2021/01/21 06:11:42;;;;;;;3.13;0.97;;;8.90;99.90;;;9.32;100.00;96025.94;5004572;28;20499;-77
2021/01/21 06:14:11;;;;;;;3.83;1.10;;;8.90;99.90;;;9.34;100.00;96036.94;5004526;28;20994;-77
2021/01/21 06:16:41;;;;;;;2.13;1.33;;;8.90;99.90;;;9.34;100.00;96031.72;5003863;28;20814;-78
2021/01/21 06:19:08;;;;;;;2.23;1.10;;;8.90;99.90;;;9.35;100.00;96015.06;5005055;28;20446;-78
2021/01/21 06:21:36;;;;;;;2.23;1.40;;;9.00;99.90;;;9.37;100.00;96023.44;5004469;28;20947;-78
2021/01/21 06:24:06;;;;;;;2.33;1.23;;;9.00;99.90;;;9.36;100.00;96016.66;5004487;28;20451;-78
2021/01/21 06:26:43;;;;;;;2.23;1.13;;;9.00;99.90;;;9.34;100.00;96020.47;5004100;28;20455;-78
2021/01/21 06:29:16;;;;;;;7.67;1.30;;;8.90;99.90;;;9.35;100.00;96004.63;5004566;28;20843;-78
2021/01/21 06:31:45;;;;;;;1.00;0.90;;;9.00;99.90;;;9.34;100.00;96005.63;5003761;28;20529;-78
2021/01/21 06:34:18;;;;;;;1.00;0.90;;;8.90;99.90;;;9.37;100.00;96007.00;5004477;28;20491;-78
2021/01/21 06:36:53;;;;;;;22.40;12.87;;;9.00;99.90;;;9.41;100.00;96010.72;5004363;28;20454;-78
2021/01/21 06:39:33;;;;;;;1.43;1.33;;;9.00;99.90;;;9.39;100.00;96010.16;5003523;28;20446;-78
2021/01/21 06:42:05;;;;;;;2.00;1.20;;;9.00;99.90;;;9.36;100.00;96010.63;5004350;28;20498;-78
2021/01/21 06:44:34;;;;;;;1.00;0.90;;;8.90;99.90;;;9.38;100.00;96019.81;5003579;28;20479;-78
2021/01/21 06:47:02;;;;;;;1.43;1.00;;;8.90;99.90;;;9.38;100.00;96003.34;5004182;28;20806;-78
2021/01/21 06:49:30;;;;;;;1.63;1.00;;;9.00;99.90;;;9.36;100.00;96006.22;5003766;28;20459;-78
2021/01/21 06:51:58;;;;;;;1.13;1.00;;;8.90;99.90;;;9.37;100.00;96012.22;5004488;28;20478;-78
2021/01/21 06:54:27;;;;;;;3.07;1.17;;;8.90;99.90;;;9.37;100.00;96017.44;5003910;28;20476;-78
2021/01/21 06:56:55;;;;;;;1.73;1.00;;;8.90;99.90;;;9.44;100.00;96025.94;5003698;28;20530;-78
2021/01/21 06:59:54;;;;;;;2.60;1.10;;;9.00;99.90;;;9.43;100.00;96014.72;5001787;28;20462;-78
2021/01/21 07:02:41;;;;;;;2.47;0.87;;;8.90;99.90;;;9.42;100.00;96036.59;5000772;28;20483;-79
2021/01/21 07:05:11;;;;;;;5.70;1.00;;;8.90;99.90;;;9.45;100.00;96027.50;5003936;28;20465;-78
2021/01/21 07:08:06;;;;;;;1.50;1.00;;;8.90;99.90;;;9.42;100.00;96039.19;5003324;28;20884;-78
2021/01/21 07:10:41;;;;;;;1.00;0.90;;;8.90;99.90;;;9.41;100.00;96050.66;5002989;28;20506;-78
2021/01/21 07:13:13;;;;;;;1.63;1.10;;;8.90;99.90;;;9.40;100.00;96043.88;5003721;28;20465;-78
2021/01/21 07:15:45;;;;;;;1.00;0.90;;;8.90;99.90;;;9.35;100.00;96051.56;5003026;28;20455;-78
2021/01/21 07:18:18;;;;;;;2.50;1.00;;;8.90;99.90;;;9.33;100.00;96047.59;5003324;28;20448;-78
2021/01/21 07:21:16;;;;;;;1.93;0.90;;;8.90;99.90;;;9.28;100.00;96056.09;5004072;28;20846;-78
2021/01/21 07:23:47;;;;;;;2.70;1.30;;;8.80;99.90;;;9.26;100.00;96068.59;5003441;28;20479;-78
2021/01/21 07:26:28;;;;;;;1.93;1.37;;;8.80;99.90;;;9.18;100.00;96081.16;5003575;28;20462;-78
2021/01/21 07:29:10;;;;;;;2.00;1.20;;;8.70;99.90;;;9.17;100.00;96079.56;5002665;28;20895;-77
2021/01/21 07:32:08;;;;;;;1.10;1.00;;;8.70;99.90;;;9.12;100.00;96080.25;5002874;28;20973;-78
2021/01/21 07:34:58;;;;;;;1.27;1.03;;;8.70;99.90;;;9.12;100.00;96084.69;5002046;28;21052;-78
2021/01/21 07:37:30;;;;;;;2.37;1.07;;;8.70;99.90;;;9.05;100.00;96097.81;5002103;28;20945;-78
2021/01/21 07:40:04;;;;;;;1.60;1.10;;;8.60;99.90;;;9.00;100.00;96089.88;5002754;28;20551;-78
2021/01/21 07:42:55;;;;;;;1.10;1.00;;;8.50;99.90;;;8.98;100.00;96097.13;5002015;28;20937;-78
2021/01/21 07:45:28;;;;;;;2.40;0.90;;;8.50;99.90;;;8.95;100.00;96114.03;5002704;28;20451;-78
2021/01/21 07:48:18;;;;;;;1.10;0.90;;;8.50;99.90;;;8.93;100.00;96118.66;5003196;28;20451;-78
2021/01/21 07:50:46;;;;;;;4.77;1.40;;;8.50;99.90;;;8.84;100.00;96108.78;5001659;28;21057;-78
2021/01/21 07:53:26;;;;;;;2.20;1.00;;;8.40;99.90;;;8.87;100.00;96097.91;5001362;28;20538;-78
2021/01/21 07:55:55;;;;;;;1.43;1.10;;;8.40;99.90;;;8.82;100.00;96109.00;5002544;28;20480;-78
2021/01/21 07:58:37;;;;;;;2.60;1.10;;;8.30;99.90;;;8.78;100.00;96107.06;5002303;28;20514;-79
2021/01/21 08:01:07;;;;;;;1.00;0.90;;;8.20;99.90;;;8.81;100.00;96117.06;5002607;28;20566;-78
2021/01/21 08:03:40;;;;;;;1.37;1.23;;;8.30;99.90;;;8.80;100.00;96118.06;5002256;28;20467;-78
2021/01/21 08:06:13;;;;;;;4.20;1.23;;;8.30;99.90;;;8.78;100.00;96122.72;5002696;28;20959;-78
2021/01/21 08:08:43;;;;;;;1.30;1.13;;;8.30;99.90;;;8.80;100.00;96125.88;5002135;28;20941;-78
2021/01/21 08:11:13;;;;;;;2.23;1.20;;;8.30;99.90;;;8.79;100.00;96129.50;5002184;28;20515;-78
2021/01/21 08:13:41;;;;;;;4.67;1.17;;;8.30;99.90;;;8.76;100.00;96138.56;5002201;28;20833;-78
2021/01/21 08:16:13;;;;;;;7.97;1.50;;;8.30;99.90;;;8.80;100.00;96149.34;5003167;28;20454;-77
2021/01/21 08:18:43;;;;;;;1.47;1.13;;;8.30;99.90;;;8.76;100.00;96145.56;5001212;28;20447;-78
2021/01/21 08:21:22;;;;;;;1.50;1.00;;;8.30;99.90;;;8.78;100.00;96146.16;5002391;28;20458;-78
2021/01/21 08:23:54;;;;;;;1.27;1.10;;;8.30;99.90;;;8.75;100.00;96163.00;5001304;28;20452;-78
2021/01/21 08:26:23;;;;;;;1.60;1.00;;;8.30;99.90;;;8.76;100.00;96166.41;5001996;28;20873;-78
2021/01/21 08:28:51;;;;;;;4.77;1.50;;;8.30;99.90;;;8.70;100.00;96188.16;5002451;28;20495;-78
2021/01/21 08:31:30;;;;;;;3.10;1.10;;;8.20;99.90;;;8.62;100.00;96191.06;5001664;28;21022;-77
2021/01/21 08:34:01;;;;;;;3.03;1.37;;;8.10;99.90;;;8.57;100.00;96218.56;5001839;28;20494;-78
2021/01/21 08:36:29;;;;;;;1.83;1.00;;;8.00;99.90;;;8.52;100.00;96228.06;5001709;28;20456;-77
2021/01/21 08:38:57;;;;;;;1.10;0.90;;;8.00;99.90;;;8.38;100.00;96253.47;5001695;28;20458;-78
2021/01/21 08:41:26;;;;;;;1.53;0.83;;;7.90;99.90;;;8.34;100.00;96252.31;5001908;28;20455;-78
2021/01/21 08:43:59;;;;;;;2.50;1.00;;;7.90;99.90;;;8.29;100.00;96257.38;5001985;28;20448;-77
2021/01/21 08:46:28;;;;;;;1.53;0.80;;;7.90;99.90;;;8.19;100.00;96253.66;5000247;28;20471;-78
2021/01/21 08:49:09;;;;;;;1.03;0.70;;;7.70;99.90;;;8.10;100.00;96260.94;5002065;28;20450;-78
2021/01/21 08:51:41;;;;;;;0.80;0.70;;;7.70;99.90;;;7.96;100.00;96260.25;5002430;28;20526;-78
2021/01/21 08:54:12;;;;;;;0.87;0.73;;;7.50;99.90;;;7.96;100.00;96259.47;5001635;28;20979;-78
2021/01/21 08:57:00;;;;;;;4.50;0.80;;;7.50;99.90;;;7.93;100.00;96285.91;5001453;28;20800;-78
2021/01/21 08:59:30;;;;;;;2.70;0.90;;;7.50;99.90;;;7.93;100.00;96285.91;4999777;28;20483;-77
2021/01/21 09:01:59;;;;;;;0.80;0.70;;;7.50;99.90;;;7.92;100.00;96292.94;5001170;28;20956;-78
2021/01/21 09:04:30;;;;;;;2.50;0.70;;;7.50;99.90;;;7.89;100.00;96300.38;5002465;28;20478;-78
2021/01/21 09:06:59;;;;;;;0.90;0.77;;;7.40;99.90;;;7.86;100.00;96309.41;5000964;28;20924;-78
2021/01/21 09:09:32;;;;;;;1.30;0.90;;;7.30;99.90;;;7.84;100.00;96314.03;5001367;28;21027;-78
2021/01/21 09:12:15;;;;;;;0.70;0.70;;;7.40;99.90;;;7.77;100.00;96320.28;5000581;28;21018;-78
2021/01/21 09:14:44;;;;;;;0.77;0.70;;;7.20;99.90;;;7.70;100.00;96322.13;5001500;28;20975;-78
2021/01/21 09:17:17;;;;;;;0.80;0.70;;;7.20;99.90;;;7.71;100.00;96318.50;4999535;28;20462;-77
2021/01/21 09:19:46;;;;;;;0.80;0.80;;;7.20;99.90;;;7.73;100.00;96322.50;5001586;28;20499;-77
2021/01/21 09:22:17;;;;;;;0.90;0.80;;;7.20;99.90;;;7.76;100.00;96329.91;5001289;28;20867;-78
2021/01/21 09:25:01;;;;;;;2.40;0.80;;;7.30;99.90;;;7.73;100.00;96334.72;5001316;28;20914;-78
2021/01/21 09:27:31;;;;;;;1.00;0.70;;;7.20;99.90;;;7.69;100.00;96341.34;5001256;28;20459;-77
2021/01/21 09:30:01;;;;;;;0.90;0.80;;;7.10;99.90;;;7.70;100.00;96341.16;4999822;28;20495;-77
2021/01/21 09:32:32;;;;;;;2.20;0.90;;;7.20;99.90;;;7.61;100.00;96358.00;5000577;28;20956;-78
2021/01/21 09:35:06;;;;;;;0.80;0.70;;;7.10;99.90;;;7.65;100.00;96353.19;5000948;28;21018;-78
2021/01/21 09:37:36;;;;;;;1.07;0.80;;;7.10;99.90;;;7.68;100.00;96358.75;5001268;28;20471;-77
2021/01/21 09:40:06;;;;;;;0.87;0.80;;;7.20;99.90;;;7.67;100.00;96366.78;5000408;28;20444;-78
2021/01/21 09:42:34;;;;;;;1.30;0.90;;;7.10;99.90;;;7.64;100.00;96365.38;5000334;28;20463;-78
2021/01/21 09:45:02;;;;;;;1.00;0.90;;;7.10;99.90;;;7.64;100.00;96356.78;5000402;28;20448;-78
2021/01/21 09:47:30;;;;;;;3.23;0.93;;;7.10;99.90;;;7.63;100.00;96356.00;5000914;28;20478;-78
2021/01/21 09:49:58;;;;;;;3.00;0.90;;;7.20;99.90;;;7.59;100.00;96360.03;5001115;28;20483;-77
2021/01/21 09:52:27;;;;;;;0.83;0.70;;;7.20;99.90;;;7.51;100.00;96353.25;5000347;28;20499;-78
2021/01/21 09:54:55;;;;;;;1.10;1.00;;;7.00;99.90;;;7.36;100.00;96351.94;5001227;28;20482;-78
2021/01/21 09:57:22;;;;;;;1.13;0.80;;;6.80;99.90;;;7.37;100.00;96359.53;4997182;28;20968;-77
2021/01/21 09:59:50;;;;;;;5.63;0.80;;;6.80;99.90;;;7.35;100.00;96360.78;5000777;28;20487;-78
2021/01/21 10:02:17;;;;;;;1.20;0.90;;;6.70;99.90;;;7.44;100.00;96360.31;5001213;28;20452;-78
2021/01/21 10:04:45;;;;;;;4.80;1.10;;;6.80;99.90;;;7.51;100.00;96350.66;4999383;28;20460;-78
2021/01/21 10:07:13;;;;;;;1.37;0.90;;;7.00;99.90;;;7.55;100.00;96364.84;5000837;28;21105;-78
2021/01/21 10:09:42;;;;;;;1.50;0.90;;;7.10;99.90;;;7.54;100.00;96360.66;4999657;28;20460;-78
2021/01/21 10:12:10;;;;;;;1.37;0.90;;;7.10;99.90;;;7.47;100.00;96370.28;4999881;28;21015;-78
2021/01/21 10:14:38;;;;;;;2.53;0.90;;;7.00;99.90;;;7.43;100.00;96371.72;5000225;28;20464;-78
2021/01/21 10:17:08;;;;;;;1.93;0.97;;;6.90;99.90;;;7.51;100.00;96360.25;4999008;28;20448;-78
2021/01/21 10:19:37;;;;;;;0.90;0.80;;;7.00;99.90;;;7.54;100.00;96355.44;5000274;28;20470;-78
2021/01/21 10:22:06;;;;;;;1.17;0.90;;;7.10;99.90;;;7.51;100.00;96344.66;5000721;28;20826;-78
2021/01/21 10:24:35;;;;;;;2.93;1.00;;;7.10;99.90;;;7.46;100.00;96342.69;5000840;28;20459;-78
2021/01/21 10:27:03;;;;;;;1.10;0.80;;;7.00;99.90;;;7.50;100.00;96353.47;5000542;28;20473;-77
2021/01/21 10:29:31;;;;;;;1.30;0.80;;;7.00;99.90;;;7.49;100.00;96357.91;5000311;28;20562;-79
2021/01/21 10:31:58;;;;;;;1.17;0.97;;;7.00;99.90;;;7.43;100.00;96368.31;5000232;28;20490;-78
2021/01/21 10:34:27;;;;;;;4.90;0.80;;;6.90;99.90;;;7.39;100.00;96367.91;4999829;28;20514;-78
2021/01/21 10:36:54;;;;;;;0.90;0.70;;;6.80;99.90;;;7.35;100.00;96371.16;5000835;28;20554;-78
2021/01/21 10:39:22;;;;;;;1.87;0.83;;;6.80;99.90;;;7.38;100.00;96376.75;4999912;28;20459;-78
2021/01/21 10:41:50;;;;;;;2.13;1.10;;;6.90;99.90;;;7.31;100.00;96370.78;5000540;28;20454;-77
2021/01/21 10:44:19;;;;;;;1.50;1.10;;;6.70;99.90;;;7.37;100.00;96363.94;5000385;28;20447;-78